createdAt,value
2016-12-22T00:00:04.397Z,0
2016-12-22T00:05:04.708Z,0
2016-12-22T00:10:04.351Z,0
2016-12-22T00:15:04.146Z,0
2016-12-22T00:20:04.769Z,0
2016-12-22T00:25:04.735Z,0
2016-12-22T00:30:05.036Z,0
2016-12-22T00:35:04.599Z,0
2016-12-22T00:40:04.503Z,0
2016-12-22T00:45:04.604Z,0
2016-12-22T00:50:04.298Z,0
2016-12-22T00:55:04.644Z,0
2016-12-22T01:00:04.507Z,0
2016-12-22T01:05:04.511Z,0
2016-12-22T01:10:04.609Z,0
2016-12-22T01:15:04.299Z,0
2016-12-22T01:20:04.200Z,0
2016-12-22T01:25:04.088Z,0
2016-12-22T01:30:04.364Z,0
2016-12-22T01:35:04.180Z,0
2016-12-22T01:40:04.460Z,0
2016-12-22T01:45:04.474Z,0
2016-12-22T01:50:04.856Z,0
2016-12-22T01:55:04.581Z,0
2016-12-22T02:00:04.322Z,0
2016-12-22T02:05:05.032Z,0
2016-12-22T02:10:04.851Z,0
2016-12-22T02:15:04.857Z,0
2016-12-22T02:20:04.320Z,0
2016-12-22T02:25:04.979Z,0
2016-12-22T02:30:04.521Z,0
2016-12-22T02:35:04.976Z,0
2016-12-22T02:40:04.864Z,0
2016-12-22T02:45:04.583Z,0
2016-12-22T02:50:04.546Z,0
2016-12-22T02:55:04.934Z,0
2016-12-22T03:00:05.445Z,0
2016-12-22T03:05:06.435Z,0
2016-12-22T03:10:04.291Z,0
2016-12-22T03:15:04.278Z,0
2016-12-22T03:20:03.938Z,0
2016-12-22T03:25:04.373Z,0
2016-12-22T03:30:04.788Z,0
2016-12-22T03:35:04.259Z,0
2016-12-22T03:40:04.826Z,0
2016-12-22T03:45:05.455Z,0
2016-12-22T03:50:04.993Z,0
2016-12-22T03:55:04.643Z,0
2016-12-22T04:00:04.692Z,0
2016-12-22T04:05:04.846Z,0
2016-12-22T04:10:04.825Z,0
2016-12-22T04:15:04.000Z,0
2016-12-22T04:20:04.472Z,0
2016-12-22T04:25:04.624Z,0
2016-12-22T04:30:04.045Z,0
2016-12-22T04:35:04.832Z,0
2016-12-22T04:40:04.964Z,0
2016-12-22T04:45:04.027Z,0
2016-12-22T04:50:04.673Z,0
2016-12-22T04:55:04.466Z,0
2016-12-22T05:00:04.401Z,0
2016-12-22T05:05:04.843Z,0
2016-12-22T05:10:04.624Z,0
2016-12-22T05:15:04.547Z,0
2016-12-22T05:20:04.416Z,0
2016-12-22T05:25:04.344Z,0
2016-12-22T05:30:04.543Z,0
2016-12-22T05:35:04.261Z,0
2016-12-22T05:40:04.331Z,0
2016-12-22T05:45:04.057Z,0
2016-12-22T05:50:04.734Z,0
2016-12-22T05:55:04.363Z,0
2016-12-22T06:00:04.380Z,0
2016-12-22T06:05:04.796Z,0
2016-12-22T06:10:04.914Z,0
2016-12-22T06:15:04.083Z,0
2016-12-22T06:20:04.307Z,0
2016-12-22T06:25:04.205Z,0
2016-12-22T06:30:04.959Z,0
2016-12-22T06:35:04.552Z,0
2016-12-22T06:40:04.753Z,0
2016-12-22T06:45:04.290Z,0
2016-12-22T06:50:04.340Z,0
2016-12-22T06:55:04.783Z,0
2016-12-22T07:00:05.007Z,1
2016-12-22T07:05:04.232Z,1
2016-12-22T07:10:04.565Z,3
2016-12-22T07:15:04.304Z,6
2016-12-22T07:20:04.406Z,11
2016-12-22T07:25:04.691Z,21
2016-12-22T07:30:04.353Z,36
2016-12-22T07:35:04.431Z,42
2016-12-22T07:40:04.486Z,50
2016-12-22T07:45:04.001Z,57
2016-12-22T07:50:04.982Z,64
2016-12-22T07:55:04.892Z,89
2016-12-22T08:00:04.896Z,122
2016-12-22T08:05:04.442Z,180
2016-12-22T08:10:04.295Z,267
2016-12-22T08:15:04.183Z,299
2016-12-22T08:20:04.383Z,286
2016-12-22T08:25:04.496Z,274
2016-12-22T08:30:04.338Z,343
2016-12-22T08:35:04.789Z,362
2016-12-22T08:40:04.226Z,400
2016-12-22T08:45:04.601Z,507
2016-12-22T08:50:04.435Z,619
2016-12-22T08:55:04.268Z,599
2016-12-22T09:00:04.277Z,631
2016-12-22T09:05:04.970Z,502
2016-12-22T09:10:04.448Z,371
2016-12-22T09:15:04.889Z,401
2016-12-22T09:22:04.435Z,440
2016-12-22T09:25:04.753Z,354
2016-12-22T09:30:04.362Z,302
2016-12-22T09:35:04.100Z,299
2016-12-22T09:40:03.969Z,561
2016-12-22T09:45:04.588Z,692
2016-12-22T09:50:04.897Z,430
2016-12-22T09:55:04.453Z,495
2016-12-22T10:00:04.721Z,586
2016-12-22T10:05:04.429Z,656
2016-12-22T10:10:04.888Z,1000
2016-12-22T10:15:05.026Z,1000
2016-12-22T10:20:04.620Z,1000
2016-12-22T10:25:04.941Z,1000
2016-12-22T10:30:04.793Z,1000
2016-12-22T10:35:04.016Z,2000
2016-12-22T10:40:04.360Z,2000
2016-12-22T10:45:05.010Z,2000
2016-12-22T10:50:04.967Z,3000
2016-12-22T10:55:04.803Z,2000
2016-12-22T11:00:04.871Z,2000
2016-12-22T11:05:04.097Z,1000
2016-12-22T11:10:04.237Z,1000
2016-12-22T11:15:03.994Z,1000
2016-12-22T11:20:04.948Z,1000
2016-12-22T11:25:04.273Z,1000
2016-12-22T11:30:04.805Z,1000
2016-12-22T11:35:04.943Z,2000
2016-12-22T11:40:04.395Z,2000
2016-12-22T11:45:04.654Z,2000
2016-12-22T11:50:05.049Z,2000
2016-12-22T11:55:04.148Z,1000
2016-12-22T12:00:04.353Z,2000
2016-12-22T12:05:04.790Z,2000
2016-12-22T12:10:04.797Z,2000
2016-12-22T12:15:04.029Z,2000
2016-12-22T12:20:04.378Z,2000
2016-12-22T12:25:04.554Z,2000
2016-12-22T12:30:04.119Z,1000
2016-12-22T12:35:04.205Z,1000
2016-12-22T12:40:04.473Z,1000
2016-12-22T12:45:04.421Z,1000
2016-12-22T12:50:04.362Z,1000
2016-12-22T12:55:04.626Z,1000
2016-12-22T13:00:04.675Z,998
2016-12-22T13:05:04.679Z,1000
2016-12-22T13:10:03.973Z,1000
2016-12-22T13:15:04.859Z,1000
2016-12-22T13:20:04.842Z,1000
2016-12-22T13:25:04.660Z,1000
2016-12-22T13:30:04.732Z,1000
2016-12-22T13:35:04.740Z,1000
2016-12-22T13:40:04.842Z,1000
2016-12-22T13:45:05.052Z,1000
2016-12-22T13:50:04.225Z,869
2016-12-22T13:55:04.335Z,761
2016-12-22T14:00:04.270Z,658
2016-12-22T14:05:04.380Z,607
2016-12-22T14:10:04.034Z,519
2016-12-22T14:15:03.983Z,491
2016-12-22T14:20:04.199Z,473
2016-12-22T14:25:04.122Z,460
2016-12-22T14:30:04.123Z,394
2016-12-22T14:35:04.894Z,429
2016-12-22T14:40:04.853Z,401
2016-12-22T14:45:04.024Z,394
2016-12-22T14:50:04.205Z,364
2016-12-22T14:55:04.661Z,284
2016-12-22T15:00:04.176Z,254
2016-12-22T15:05:04.555Z,124
2016-12-22T15:10:04.125Z,96
2016-12-22T15:15:04.381Z,114
2016-12-22T15:20:04.844Z,77
2016-12-22T15:25:04.497Z,64
2016-12-22T15:30:04.754Z,62
2016-12-22T15:35:04.570Z,61
2016-12-22T15:40:04.450Z,54
2016-12-22T15:45:04.713Z,46
2016-12-22T15:50:04.144Z,14
2016-12-22T15:55:04.799Z,12
2016-12-22T16:00:04.135Z,5
2016-12-22T16:05:04.236Z,2
2016-12-22T16:10:04.402Z,1
2016-12-22T16:15:04.309Z,0
2016-12-22T16:20:04.423Z,0
2016-12-22T16:25:04.282Z,0
2016-12-22T16:30:04.634Z,0
2016-12-22T16:35:04.602Z,0
2016-12-22T16:40:04.669Z,0
2016-12-22T16:45:03.941Z,0
2016-12-22T16:50:04.648Z,0
2016-12-22T16:55:04.103Z,0
2016-12-22T17:00:04.623Z,0
2016-12-22T17:05:04.184Z,0
2016-12-22T17:10:04.519Z,0
2016-12-22T17:15:04.773Z,0
2016-12-22T17:20:04.043Z,0
2016-12-22T17:25:04.417Z,0
2016-12-22T17:30:04.238Z,0
2016-12-22T17:35:04.300Z,0
2016-12-22T17:40:04.105Z,0
2016-12-22T17:45:04.456Z,0
2016-12-22T17:50:04.218Z,0
2016-12-22T17:55:04.973Z,0
2016-12-22T18:00:04.799Z,0
2016-12-22T18:05:04.159Z,0
2016-12-22T18:10:04.053Z,0
2016-12-22T18:15:04.006Z,0
2016-12-22T18:20:04.835Z,0
2016-12-22T18:25:04.377Z,0
2016-12-22T18:30:04.524Z,0
2016-12-22T18:35:04.848Z,0
2016-12-22T18:40:04.437Z,0
2016-12-22T18:45:04.666Z,0
2016-12-22T18:50:04.846Z,0
2016-12-22T18:55:04.917Z,0
2016-12-22T19:00:04.317Z,0
2016-12-22T19:05:04.377Z,0
2016-12-22T19:10:04.375Z,0
2016-12-22T19:15:05.024Z,0
2016-12-22T19:20:04.124Z,0
2016-12-22T19:25:04.453Z,0
2016-12-22T19:30:04.469Z,0
2016-12-22T19:35:04.299Z,0
2016-12-22T19:40:04.574Z,0
2016-12-22T19:45:04.474Z,0
2016-12-22T19:50:04.670Z,0
2016-12-22T19:55:04.743Z,0
2016-12-22T20:00:05.015Z,0
2016-12-22T20:05:04.861Z,0
2016-12-22T20:10:04.874Z,0
2016-12-22T20:15:05.042Z,0
2016-12-22T20:20:04.211Z,0
2016-12-22T20:25:04.700Z,0
2016-12-22T20:30:04.667Z,0
2016-12-22T20:35:04.519Z,0
2016-12-22T20:40:04.294Z,0
2016-12-22T20:45:04.504Z,0
2016-12-22T20:50:04.198Z,0
2016-12-22T20:55:04.099Z,0
2016-12-22T21:00:03.998Z,0
2016-12-22T21:05:04.477Z,0
2016-12-22T21:10:04.406Z,0
2016-12-22T21:15:04.224Z,0
2016-12-22T21:20:04.172Z,0
2016-12-22T21:25:04.989Z,0
2016-12-22T21:30:04.700Z,0
2016-12-22T21:35:04.713Z,0
2016-12-22T21:40:04.245Z,0
2016-12-22T21:45:04.606Z,0
2016-12-22T21:50:04.332Z,0
2016-12-22T21:55:04.929Z,0
2016-12-22T22:00:04.387Z,0
2016-12-22T22:05:04.593Z,0
2016-12-22T22:10:04.356Z,0
2016-12-22T22:15:04.624Z,0
2016-12-22T22:20:04.948Z,0
2016-12-22T22:25:04.411Z,0
2016-12-22T22:30:04.235Z,0
2016-12-22T22:35:04.966Z,0
2016-12-22T22:40:03.821Z,0
2016-12-22T22:45:04.758Z,0
2016-12-22T22:50:05.050Z,0
2016-12-22T22:55:04.582Z,0
2016-12-22T23:00:04.911Z,0
2016-12-22T23:05:05.123Z,0
2016-12-22T23:10:04.612Z,0
2016-12-22T23:15:04.532Z,0
2016-12-22T23:20:04.278Z,0
2016-12-22T23:25:04.641Z,0
2016-12-22T23:30:04.483Z,0
2016-12-22T23:35:04.734Z,0
2016-12-22T23:40:04.018Z,0
2016-12-22T23:45:04.097Z,0
2016-12-22T23:50:04.523Z,0
2016-12-22T23:55:05.025Z,0
